Time;durP1;ratioP1;P1;durP2;ratioP2;P2;SDS_P1;SDS_P2;PMS_P1;PMS_P2;Temp;Humidity;BMP_temperature;BMP_pressure;BME280_temperature;BME280_humidity;BME280_pressure;Samples;Min_cycle;Max_cycle;Signal;HPM_P1;HPM_P2
2023/09/16 00:01:08;;;;;;;7.65;6.50;;;16.60;99.90;;;;;;6278763;28;20053;-80
2023/09/16 00:04:11;;;;;;;5.75;5.20;;;16.60;99.90;;;;;;6277943;28;20060;-80
2023/09/16 00:07:13;;;;;;;7.05;5.80;;;16.60;99.90;;;;;;6278407;28;20041;-79
2023/09/16 00:10:16;;;;;;;6.47;5.72;;;16.60;99.90;;;;;;6280462;28;20412;-79
2023/09/16 00:13:18;;;;;;;8.02;5.57;;;16.60;99.90;;;;;;6280525;28;20416;-79
2023/09/16 00:16:20;;;;;;;7.35;5.75;;;16.60;99.90;;;;;;6277712;28;20041;-79
2023/09/16 00:19:23;;;;;;;7.05;5.60;;;16.50;99.90;;;;;;6278815;28;20497;-79
2023/09/16 00:22:25;;;;;;;7.05;5.22;;;16.40;99.90;;;;;;6277204;28;20398;-79
2023/09/16 00:25:28;;;;;;;7.07;5.75;;;16.40;99.90;;;;;;6277538;28;20045;-78
2023/09/16 00:28:30;;;;;;;7.75;6.13;;;16.30;99.90;;;;;;6277849;28;20041;-80
2023/09/16 00:31:33;;;;;;;7.43;6.68;;;16.20;99.90;;;;;;6278117;28;20041;-80
2023/09/16 00:34:34;;;;;;;7.32;5.78;;;16.20;99.90;;;;;;6275981;28;20037;-80
2023/09/16 00:37:36;;;;;;;7.70;5.50;;;16.20;99.90;;;;;;6276407;28;20458;-79
2023/09/16 00:40:39;;;;;;;6.30;5.15;;;16.20;99.90;;;;;;6277043;28;20413;-79
2023/09/16 00:43:41;;;;;;;7.78;5.25;;;16.10;99.90;;;;;;6276925;28;20041;-79
2023/09/16 00:46:42;;;;;;;6.47;4.25;;;16.10;99.90;;;;;;6277757;28;20517;-78
2023/09/16 00:49:44;;;;;;;6.15;5.55;;;16.10;99.90;;;;;;6273980;28;20037;-78
2023/09/16 00:52:48;;;;;;;7.82;6.57;;;16.00;99.90;;;;;;6275382;28;20044;-78
2023/09/16 00:55:52;;;;;;;6.82;5.63;;;16.00;99.90;;;;;;6276577;28;20087;-80
2023/09/16 00:58:54;;;;;;;6.30;5.57;;;16.00;99.90;;;;;;6277517;28;20417;-79
2023/09/16 01:01:57;;;;;;;6.78;5.88;;;15.90;99.90;;;;;;6276704;28;20049;-80
2023/09/16 01:04:58;;;;;;;8.10;5.80;;;15.90;99.90;;;;;;6276219;28;20045;-79
2023/09/16 01:08:00;;;;;;;9.13;5.38;;;15.90;99.90;;;;;;6275805;28;20509;-79
2023/09/16 01:11:05;;;;;;;5.97;5.30;;;15.80;99.90;;;;;;6286404;28;20055;-78
2023/09/16 01:14:06;;;;;;;8.30;5.75;;;15.80;99.90;;;;;;6275377;28;20044;-78
2023/09/16 01:17:16;;;;;;;8.73;5.75;;;15.70;99.90;;;;;;6274990;28;20040;-79
2023/09/16 01:20:21;;;;;;;7.45;5.20;;;15.80;99.90;;;;;;6275448;28;20051;-80
2023/09/16 01:23:22;;;;;;;6.78;5.95;;;15.70;99.90;;;;;;6274322;28;20036;-77
2023/09/16 01:26:25;;;;;;;8.95;5.60;;;15.70;99.90;;;;;;6275293;28;20048;-79
2023/09/16 01:29:27;;;;;;;7.22;5.72;;;15.60;99.90;;;;;;6276354;28;20041;-79
2023/09/16 01:32:43;;;;;;;6.80;5.60;;;15.60;99.90;;;;;;6275940;28;20465;-80
2023/09/16 01:35:48;;;;;;;6.82;6.13;;;15.50;99.90;;;;;;6283730;28;20047;-79
2023/09/16 01:38:56;;;;;;;6.45;5.38;;;15.50;99.90;;;;;;6286190;28;20049;-80
2023/09/16 01:42:02;;;;;;;6.57;5.90;;;15.50;99.90;;;;;;6299702;28;20420;-81
2023/09/16 01:45:04;;;;;;;6.60;5.45;;;15.50;99.90;;;;;;6300136;28;20557;-79
2023/09/16 01:48:06;;;;;;;7.03;5.90;;;15.50;99.90;;;;;;6301153;28;20044;-77
2023/09/16 01:51:07;;;;;;;8.35;5.85;;;15.40;99.90;;;;;;6301899;28;20056;-79
2023/09/16 01:54:09;;;;;;;7.78;6.32;;;15.30;99.90;;;;;;6300905;28;20412;-79
2023/09/16 01:57:12;;;;;;;7.70;6.40;;;15.30;99.90;;;;;;6281625;28;20049;-78
2023/09/16 02:00:14;;;;;;;6.18;5.43;;;15.20;99.90;;;;;;6279322;28;20045;-79
2023/09/16 02:03:16;;;;;;;6.63;5.63;;;15.20;99.90;;;;;;6302183;28;20040;-79
2023/09/16 02:06:17;;;;;;;7.95;5.45;;;15.20;99.90;;;;;;6279789;28;20045;-79
2023/09/16 02:09:19;;;;;;;6.63;5.90;;;15.20;99.90;;;;;;6276037;28;20096;-78
2023/09/16 02:12:22;;;;;;;7.78;6.35;;;15.20;99.90;;;;;;6275038;28;20065;-80
2023/09/16 02:15:24;;;;;;;7.78;6.25;;;15.20;99.90;;;;;;6278027;28;20048;-79
2023/09/16 02:18:26;;;;;;;8.98;6.20;;;15.10;99.90;;;;;;6279160;28;20052;-77
2023/09/16 02:21:28;;;;;;;6.97;5.80;;;15.20;99.90;;;;;;6279540;28;20049;-78
2023/09/16 02:24:29;;;;;;;7.70;6.03;;;15.10;99.90;;;;;;6278799;28;20055;-77
2023/09/16 02:27:33;;;;;;;6.40;5.45;;;15.10;99.90;;;;;;6276593;28;20049;-77
2023/09/16 02:30:34;;;;;;;8.88;6.03;;;15.00;99.90;;;;;;6274921;28;20049;-78
2023/09/16 02:33:36;;;;;;;7.40;5.18;;;15.00;99.90;;;;;;6282569;28;20044;-78
2023/09/16 02:36:38;;;;;;;6.78;5.53;;;15.00;99.90;;;;;;6275232;28;20052;-78
2023/09/16 02:39:40;;;;;;;6.88;5.75;;;14.90;99.90;;;;;;6278441;28;20045;-77
2023/09/16 02:42:43;;;;;;;7.28;5.47;;;14.90;99.90;;;;;;6274906;28;20579;-77
2023/09/16 02:45:45;;;;;;;6.95;5.50;;;14.90;99.90;;;;;;6274718;28;20064;-79
2023/09/16 02:48:46;;;;;;;9.57;6.20;;;14.90;99.90;;;;;;6274521;28;20041;-78
2023/09/16 02:51:48;;;;;;;7.07;6.10;;;14.80;99.90;;;;;;6274095;28;20045;-77
2023/09/16 02:54:50;;;;;;;7.00;6.03;;;14.80;99.90;;;;;;6276696;28;20045;-77
2023/09/16 02:57:53;;;;;;;7.95;5.93;;;14.80;99.90;;;;;;6274063;28;20501;-77
2023/09/16 03:00:55;;;;;;;9.82;5.85;;;14.80;99.90;;;;;;6280217;28;20053;-78
2023/09/16 03:03:56;;;;;;;9.13;5.68;;;14.80;99.90;;;;;;6282672;28;20041;-78
2023/09/16 03:06:58;;;;;;;8.00;5.20;;;14.80;99.90;;;;;;6300656;28;20056;-78
2023/09/16 03:10:00;;;;;;;8.27;5.70;;;14.80;99.90;;;;;;6307136;28;20497;-80
2023/09/16 03:13:04;;;;;;;5.80;4.72;;;14.70;99.90;;;;;;6287408;28;20095;-77
2023/09/16 03:16:14;;;;;;;6.82;5.55;;;14.70;99.90;;;;;;6281657;28;20049;-77
2023/09/16 03:19:17;;;;;;;7.13;5.53;;;14.60;99.90;;;;;;6282193;28;20052;-79
2023/09/16 03:22:19;;;;;;;8.02;7.22;;;14.60;99.90;;;;;;6280588;28;20525;-78
2023/09/16 03:25:21;;;;;;;8.25;5.22;;;14.60;99.90;;;;;;6280336;28;20168;-77
2023/09/16 03:28:24;;;;;;;7.60;5.88;;;14.50;99.90;;;;;;6280119;28;20044;-78
2023/09/16 03:31:26;;;;;;;7.78;5.30;;;14.50;99.90;;;;;;6280319;28;20045;-78
2023/09/16 03:34:27;;;;;;;6.22;5.05;;;14.50;99.90;;;;;;6288245;28;20037;-77
2023/09/16 03:37:29;;;;;;;7.63;5.85;;;14.50;99.90;;;;;;6279358;28;20124;-77
2023/09/16 03:40:32;;;;;;;7.18;6.03;;;14.50;99.90;;;;;;6279945;28;20051;-76
2023/09/16 03:43:35;;;;;;;7.78;5.65;;;14.50;99.90;;;;;;6279947;28;20051;-77
2023/09/16 03:46:37;;;;;;;8.15;5.28;;;14.40;99.90;;;;;;6279519;28;20501;-79
2023/09/16 03:49:38;;;;;;;7.30;6.35;;;14.40;99.90;;;;;;6279376;28;20048;-78
2023/09/16 03:52:40;;;;;;;7.65;6.30;;;14.40;99.90;;;;;;6278643;28;20041;-77
2023/09/16 03:55:42;;;;;;;11.57;6.32;;;14.30;99.90;;;;;;6285950;28;20056;-77
2023/09/16 03:58:45;;;;;;;5.85;5.15;;;14.30;99.90;;;;;;6303800;28;20098;-77
2023/09/16 04:01:47;;;;;;;7.97;5.68;;;14.30;99.90;;;;;;6303806;28;20044;-78
2023/09/16 04:04:48;;;;;;;6.03;5.13;;;14.20;99.90;;;;;;6288659;28;20037;-78
2023/09/16 04:07:50;;;;;;;8.35;5.20;;;14.20;99.90;;;;;;6278840;28;20072;-78
2023/09/16 04:10:52;;;;;;;8.57;4.68;;;14.20;99.90;;;;;;6279136;28;20049;-78
2023/09/16 04:13:55;;;;;;;6.40;5.65;;;14.20;99.90;;;;;;6278460;28;20044;-77
2023/09/16 04:16:56;;;;;;;7.13;4.93;;;14.20;99.90;;;;;;6286797;28;20053;-77
2023/09/16 04:19:58;;;;;;;7.95;5.88;;;14.10;99.90;;;;;;6285111;28;20048;-78
2023/09/16 04:23:00;;;;;;;8.60;6.38;;;14.10;99.90;;;;;;6279218;28;20397;-79
2023/09/16 04:26:02;;;;;;;8.13;4.97;;;14.10;99.90;;;;;;6278393;28;20416;-77
2023/09/16 04:29:05;;;;;;;6.82;5.55;;;14.00;99.90;;;;;;6278594;28;20045;-77
2023/09/16 04:32:07;;;;;;;7.45;6.30;;;14.00;99.90;;;;;;6277436;28;20048;-78
2023/09/16 04:35:09;;;;;;;7.53;5.57;;;14.00;99.90;;;;;;6277165;28;20048;-78
2023/09/16 04:38:12;;;;;;;7.68;5.30;;;14.00;99.90;;;;;;6285110;28;20047;-77
2023/09/16 04:41:14;;;;;;;9.15;6.05;;;13.90;99.90;;;;;;6278715;28;20045;-77
2023/09/16 04:44:17;;;;;;;6.88;5.80;;;13.90;99.90;;;;;;6276491;28;20045;-77
2023/09/16 04:47:21;;;;;;;6.88;5.75;;;13.90;99.90;;;;;;6275632;28;20108;-77
2023/09/16 04:50:23;;;;;;;9.38;7.82;;;13.90;99.90;;;;;;6275341;28;20067;-77
2023/09/16 04:53:24;;;;;;;7.85;5.45;;;13.90;99.90;;;;;;6276384;28;20045;-77
2023/09/16 04:56:26;;;;;;;7.75;4.68;;;13.90;99.90;;;;;;6276073;28;20044;-78
2023/09/16 04:59:32;;;;;;;6.45;4.97;;;13.90;99.90;;;;;;6277423;28;20045;-78
2023/09/16 05:02:34;;;;;;;6.75;5.28;;;13.80;99.90;;;;;;6278261;28;20048;-77
2023/09/16 05:05:36;;;;;;;6.35;5.40;;;13.80;99.90;;;;;;6277163;28;20053;-77
2023/09/16 05:08:38;;;;;;;6.32;4.15;;;13.80;99.90;;;;;;6278012;28;20041;-77
2023/09/16 05:11:39;;;;;;;6.90;5.50;;;13.80;99.90;;;;;;6275231;28;20060;-77
2023/09/16 05:14:42;;;;;;;6.22;5.47;;;13.80;99.90;;;;;;6276020;28;20037;-78
2023/09/16 05:17:44;;;;;;;7.50;5.63;;;13.70;99.90;;;;;;6234354;28;20437;-78
2023/09/16 05:20:46;;;;;;;10.68;6.28;;;13.70;99.90;;;;;;6272932;28;20042;-77
2023/09/16 05:23:47;;;;;;;5.25;4.72;;;13.70;99.90;;;;;;6268398;28;20052;-77
2023/09/16 05:26:49;;;;;;;8.82;5.40;;;13.80;99.90;;;;;;6280966;28;20053;-78
2023/09/16 05:29:54;;;;;;;7.00;5.60;;;13.80;99.90;;;;;;6276951;28;20046;-77
2023/09/16 05:32:56;;;;;;;7.20;5.95;;;13.80;99.90;;;;;;6284101;28;20044;-78
2023/09/16 05:35:57;;;;;;;9.98;5.85;;;13.80;99.90;;;;;;6275584;28;20045;-78
2023/09/16 05:39:01;;;;;;;7.25;5.05;;;14.00;99.90;;;;;;6268283;28;20055;-77
2023/09/16 05:42:03;;;;;;;7.88;5.85;;;14.00;99.90;;;;;;6276242;28;20055;-78
2023/09/16 05:45:08;;;;;;;5.68;4.68;;;14.20;99.90;;;;;;6275175;28;20049;-77
2023/09/16 05:48:09;;;;;;;11.63;4.40;;;14.30;99.90;;;;;;6275814;28;20045;-79
2023/09/16 05:51:11;;;;;;;6.65;5.22;;;14.40;99.90;;;;;;6279530;28;20049;-77
2023/09/16 05:54:14;;;;;;;7.82;4.85;;;14.60;99.90;;;;;;6297845;28;20515;-76
2023/09/16 05:57:16;;;;;;;5.90;4.88;;;14.80;99.90;;;;;;6297223;28;20078;-78
2023/09/16 06:00:19;;;;;;;9.18;5.72;;;15.00;99.90;;;;;;6300062;28;20050;-76
2023/09/16 06:03:21;;;;;;;7.45;4.75;;;15.10;99.90;;;;;;6298074;28;20079;-77
2023/09/16 06:06:22;;;;;;;6.65;4.85;;;15.30;99.90;;;;;;6295126;28;20033;-76
2023/09/16 06:09:24;;;;;;;7.63;5.85;;;15.50;99.90;;;;;;6295431;28;20044;-77
2023/09/16 06:12:26;;;;;;;6.25;5.50;;;15.70;99.90;;;;;;6295129;28;20044;-76
2023/09/16 06:15:29;;;;;;;4.75;4.25;;;15.90;99.90;;;;;;6298561;28;20047;-77
2023/09/16 06:18:30;;;;;;;5.72;4.97;;;16.10;99.90;;;;;;6294053;28;20051;-77
2023/09/16 06:21:32;;;;;;;5.22;4.00;;;16.30;99.90;;;;;;6285966;28;20044;-76
2023/09/16 06:24:34;;;;;;;5.68;4.47;;;16.50;99.90;;;;;;6281138;28;20037;-78
2023/09/16 06:27:36;;;;;;;6.38;4.63;;;16.60;99.90;;;;;;6291552;28;20051;-77
2023/09/16 06:30:39;;;;;;;13.35;5.43;;;16.70;99.90;;;;;;6294696;28;20052;-77
2023/09/16 06:33:41;;;;;;;7.68;6.18;;;16.90;99.90;;;;;;6293613;28;20048;-77
2023/09/16 06:36:42;;;;;;;6.55;4.72;;;17.10;99.90;;;;;;6271010;28;20523;-77
2023/09/16 06:39:45;;;;;;;6.07;5.47;;;17.20;99.90;;;;;;6273415;28;20406;-77
2023/09/16 06:42:47;;;;;;;6.32;5.38;;;17.40;99.90;;;;;;6277038;28;20056;-77
2023/09/16 06:45:50;;;;;;;6.70;5.45;;;17.60;99.90;;;;;;6268467;28;20052;-77
2023/09/16 06:48:52;;;;;;;10.07;4.07;;;17.80;99.90;;;;;;6267738;28;20530;-77
2023/09/16 06:51:53;;;;;;;6.95;5.38;;;18.00;99.90;;;;;;6267155;28;20049;-77
2023/09/16 06:54:55;;;;;;;6.70;5.03;;;18.20;99.90;;;;;;6292780;28;20045;-77
2023/09/16 06:57:57;;;;;;;7.53;5.85;;;18.50;99.90;;;;;;6277193;28;20065;-77
2023/09/16 07:01:08;;;;;;;8.15;7.07;;;18.70;99.90;;;;;;6286638;28;20044;-77
2023/09/16 07:04:10;;;;;;;10.25;7.30;;;19.10;99.90;;;;;;6278834;28;20047;-77
2023/09/16 07:07:11;;;;;;;8.43;6.90;;;19.50;99.90;;;;;;6282941;28;20055;-77
2023/09/16 07:10:13;;;;;;;9.30;6.38;;;19.80;99.90;;;;;;6272160;28;20045;-77
2023/09/16 07:13:15;;;;;;;7.13;5.47;;;20.20;99.90;;;;;;6232612;28;1030330;-77
2023/09/16 07:16:20;;;;;;;10.20;6.60;;;20.50;99.90;;;;;;6269264;28;20048;-77
2023/09/16 07:19:21;;;;;;;7.57;5.68;;;20.80;99.90;;;;;;6269908;28;20051;-76
2023/09/16 07:22:23;;;;;;;7.72;6.55;;;21.10;99.90;;;;;;6270489;28;20120;-77
2023/09/16 07:25:25;;;;;;;8.02;6.43;;;21.40;99.90;;;;;;6276521;28;20064;-76
2023/09/16 07:28:28;;;;;;;7.00;5.18;;;21.60;99.90;;;;;;6269071;28;20045;-77
2023/09/16 07:31:31;;;;;;;7.45;4.90;;;21.70;99.90;;;;;;6269867;28;20049;-77
2023/09/16 07:34:33;;;;;;;6.93;5.65;;;21.80;99.90;;;;;;6269725;28;20663;-77
2023/09/16 07:37:35;;;;;;;5.75;5.03;;;22.10;99.90;;;;;;6289428;28;20040;-77
2023/09/16 07:40:38;;;;;;;7.35;5.47;;;22.40;99.90;;;;;;6286865;28;20044;-77
2023/09/16 07:43:39;;;;;;;5.85;5.25;;;22.80;99.90;;;;;;6290290;28;20045;-77
2023/09/16 07:46:42;;;;;;;6.40;5.13;;;23.10;99.90;;;;;;6293750;28;20036;-77
2023/09/16 07:49:44;;;;;;;7.03;5.65;;;23.50;99.90;;;;;;6292139;28;20048;-77
2023/09/16 07:52:46;;;;;;;6.43;5.47;;;23.80;99.50;;;;;;6280497;28;20067;-77
2023/09/16 07:55:47;;;;;;;6.45;4.75;;;24.00;98.90;;;;;;6296862;28;20047;-78
2023/09/16 07:58:49;;;;;;;5.82;5.22;;;24.40;98.40;;;;;;6301186;28;20044;-78
2023/09/16 08:01:52;;;;;;;5.20;4.18;;;25.10;97.30;;;;;;6298858;28;20052;-77
2023/09/16 08:04:54;;;;;;;5.45;4.95;;;25.60;96.00;;;;;;6282526;28;20042;-77
2023/09/16 08:07:56;;;;;;;6.13;5.53;;;26.20;94.90;;;;;;6302499;28;20056;-78
2023/09/16 08:10:57;;;;;;;5.10;4.07;;;26.60;93.80;;;;;;6301334;28;20072;-78
2023/09/16 08:13:59;;;;;;;7.72;5.35;;;26.90;93.00;;;;;;6297385;28;20532;-76
2023/09/16 08:17:02;;;;;;;7.38;4.90;;;27.10;92.30;;;;;;6297348;28;20048;-76
2023/09/16 08:20:05;;;;;;;5.88;3.88;;;27.30;91.60;;;;;;6294799;28;20044;-76
2023/09/16 08:23:08;;;;;;;5.82;4.00;;;27.30;91.10;;;;;;6281449;28;20071;-76
2023/09/16 08:26:09;;;;;;;6.18;4.40;;;27.60;90.50;;;;;;6272906;28;20045;-76
2023/09/16 08:29:11;;;;;;;5.18;4.35;;;27.70;90.00;;;;;;6273654;28;20045;-77
2023/09/16 08:32:14;;;;;;;4.43;3.55;;;28.00;88.90;;;;;;6287281;28;20037;-76
2023/09/16 08:35:16;;;;;;;6.85;4.97;;;28.30;87.40;;;;;;6273034;28;20053;-77
2023/09/16 08:38:18;;;;;;;4.15;3.75;;;28.50;85.30;;;;;;6272925;28;20131;-76
2023/09/16 08:41:28;;;;;;;4.95;4.45;;;28.80;83.60;;;;;;6272567;28;20045;-76
2023/09/16 08:44:34;;;;;;;4.63;3.83;;;29.10;81.30;;;;;;6273885;28;20075;-76
2023/09/16 08:47:42;;;;;;;4.78;3.72;;;29.40;79.70;;;;;;6274341;28;20052;-76
2023/09/16 08:50:45;;;;;;;5.22;3.88;;;29.60;77.70;;;;;;6289854;28;20432;-77
2023/09/16 08:53:47;;;;;;;3.97;3.58;;;29.80;76.30;;;;;;6280285;28;20102;-76
2023/09/16 08:56:50;;;;;;;3.75;3.33;;;30.00;74.90;;;;;;6292641;28;20047;-76
2023/09/16 08:59:52;;;;;;;4.75;4.25;;;30.10;73.70;;;;;;6291825;28;20051;-76
2023/09/16 09:02:56;;;;;;;4.43;3.70;;;30.30;72.80;;;;;;6271891;28;20529;-76
2023/09/16 09:05:58;;;;;;;4.30;3.95;;;30.40;72.00;;;;;;6271605;28;20072;-77
2023/09/16 09:08:59;;;;;;;4.32;3.92;;;30.30;71.30;;;;;;6280500;28;20076;-76
2023/09/16 09:12:01;;;;;;;4.53;3.25;;;30.20;71.10;;;;;;6279231;28;20049;-75
2023/09/16 09:15:05;;;;;;;3.92;3.53;;;30.10;70.80;;;;;;6271911;28;20045;-75
2023/09/16 09:18:08;;;;;;;5.97;3.70;;;30.20;70.80;;;;;;6275082;28;20504;-75
2023/09/16 09:21:10;;;;;;;3.78;3.20;;;30.10;70.40;;;;;;6277899;28;20174;-77
2023/09/16 09:24:12;;;;;;;3.13;2.83;;;30.20;70.50;;;;;;6272830;28;20041;-77
2023/09/16 09:27:14;;;;;;;7.22;4.38;;;30.20;70.30;;;;;;6273522;28;20048;-77
2023/09/16 09:30:16;;;;;;;4.32;3.90;;;30.40;69.90;;;;;;6282101;28;20053;-77
2023/09/16 09:33:21;;;;;;;3.92;3.35;;;30.50;69.40;;;;;;6293177;28;20048;-76
2023/09/16 09:36:24;;;;;;;5.47;4.30;;;30.60;68.90;;;;;;6286086;28;20401;-76
2023/09/16 09:39:26;;;;;;;7.22;4.13;;;30.70;68.70;;;;;;6298431;28;20045;-77
2023/09/16 09:42:28;;;;;;;4.32;3.92;;;30.60;68.70;;;;;;6293845;28;20505;-77
2023/09/16 09:45:36;;;;;;;5.05;4.38;;;30.60;68.80;;;;;;6297268;28;20492;-77
2023/09/16 09:48:40;;;;;;;3.95;3.50;;;30.70;68.50;;;;;;6306683;28;20047;-76
2023/09/16 09:51:43;;;;;;;4.93;4.43;;;30.90;68.10;;;;;;6294611;28;20109;-77
2023/09/16 09:54:46;;;;;;;4.63;3.60;;;31.00;67.60;;;;;;6275686;28;20044;-77
2023/09/16 09:57:50;;;;;;;5.68;3.38;;;31.10;67.10;;;;;;6283983;28;20420;-77
2023/09/16 10:00:53;;;;;;;4.18;3.50;;;31.10;66.90;;;;;;6295923;28;20044;-77
2023/09/16 10:03:56;;;;;;;4.45;4.03;;;31.20;67.10;;;;;;6294773;28;20075;-77
2023/09/16 10:07:00;;;;;;;4.78;3.90;;;31.30;66.80;;;;;;6295614;28;20485;-77
2023/09/16 10:10:01;;;;;;;5.40;3.80;;;31.30;66.50;;;;;;6294297;28;20505;-77
2023/09/16 10:13:04;;;;;;;4.05;3.65;;;31.50;66.30;;;;;;6294563;28;20051;-76
2023/09/16 10:16:07;;;;;;;4.57;4.00;;;31.80;65.80;;;;;;6294594;28;20051;-77
2023/09/16 10:19:10;;;;;;;5.22;3.90;;;32.20;65.10;;;;;;6295465;28;20083;-77
2023/09/16 10:22:13;;;;;;;4.88;4.22;;;32.70;64.10;;;;;;6291687;28;20064;-77
2023/09/16 10:25:17;;;;;;;4.38;3.92;;;32.90;63.50;;;;;;6294887;28;20044;-77
2023/09/16 10:28:18;;;;;;;4.40;3.97;;;33.10;62.90;;;;;;6294644;28;20481;-77
2023/09/16 10:31:21;;;;;;;4.03;3.58;;;33.30;62.60;;;;;;6295235;28;20057;-77
2023/09/16 10:34:24;;;;;;;6.18;3.53;;;33.40;62.10;;;;;;6294528;28;20056;-77
2023/09/16 10:37:27;;;;;;;3.97;3.58;;;33.60;61.50;;;;;;6295034;28;20040;-77
2023/09/16 10:40:29;;;;;;;3.75;3.42;;;33.80;61.00;;;;;;6295465;28;20520;-77
2023/09/16 10:43:32;;;;;;;5.38;3.63;;;34.00;60.10;;;;;;6293897;28;20059;-77
2023/09/16 10:46:34;;;;;;;5.60;4.53;;;33.90;59.90;;;;;;6264270;28;20049;-77
2023/09/16 10:49:37;;;;;;;5.20;4.13;;;34.10;59.50;;;;;;6270169;28;20041;-77
2023/09/16 10:52:42;;;;;;;4.88;3.50;;;34.00;59.20;;;;;;6281867;28;20051;-78
2023/09/16 10:55:50;;;;;;;4.78;3.72;;;33.70;59.20;;;;;;6296129;28;20040;-77
2023/09/16 10:58:56;;;;;;;4.05;3.67;;;33.50;59.40;;;;;;6276099;28;20053;-78
2023/09/16 11:02:06;;;;;;;5.53;3.10;;;33.20;59.50;;;;;;6293413;28;20117;-77
2023/09/16 11:05:09;;;;;;;4.55;3.22;;;33.20;59.30;;;;;;6295544;28;20051;-78
2023/09/16 11:08:11;;;;;;;3.45;3.15;;;33.30;59.10;;;;;;6294772;28;20055;-77
2023/09/16 11:11:13;;;;;;;4.70;3.80;;;33.40;59.20;;;;;;6296613;28;20052;-77
2023/09/16 11:14:16;;;;;;;3.67;3.35;;;33.40;59.30;;;;;;6289433;28;20519;-78
2023/09/16 11:17:18;;;;;;;3.72;3.17;;;33.50;59.30;;;;;;6295422;28;20416;-76
2023/09/16 11:20:28;;;;;;;3.20;2.85;;;33.70;59.20;;;;;;6267840;28;20037;-77
2023/09/16 11:23:30;;;;;;;4.78;3.10;;;34.00;58.80;;;;;;6292847;28;20183;-78
2023/09/16 11:26:37;;;;;;;3.80;3.45;;;34.10;58.70;;;;;;6297879;28;20416;-76
2023/09/16 11:29:38;;;;;;;;;;;34.40;58.50;;;;;;6278327;28;20049;-78
2023/09/16 11:32:41;;;;;;;3.72;3.25;;;34.90;58.30;;;;;;6273297;28;19928;-77
2023/09/16 11:35:46;;;;;;;3.95;3.30;;;35.10;57.50;;;;;;6285343;28;20053;-77
2023/09/16 11:38:58;;;;;;;3.30;3.00;;;35.30;56.90;;;;;;6277111;28;20048;-78
2023/09/16 11:41:59;;;;;;;3.40;3.10;;;35.50;56.10;;;;;;6276494;28;20072;-79
2023/09/16 11:45:01;;;;;;;3.53;3.22;;;35.60;55.60;;;;;;6276712;28;20048;-78
2023/09/16 11:48:03;;;;;;;3.55;3.20;;;35.40;55.60;;;;;;6276391;28;20509;-77
2023/09/16 11:51:06;;;;;;;3.83;2.90;;;35.40;55.50;;;;;;6287591;28;20049;-78
2023/09/16 11:54:08;;;;;;;3.78;2.88;;;35.50;55.60;;;;;;6290943;28;20048;-76
2023/09/16 11:57:11;;;;;;;3.42;3.13;;;35.50;55.30;;;;;;6285844;28;20045;-78
2023/09/16 12:00:14;;;;;;;5.13;3.03;;;35.40;55.20;;;;;;6277656;28;20048;-80
2023/09/16 12:03:16;;;;;;;4.65;4.25;;;35.20;55.10;;;;;;6285077;28;20060;-79
2023/09/16 12:06:21;;;;;;;3.38;2.67;;;35.10;55.00;;;;;;6301528;28;20044;-79
2023/09/16 12:09:25;;;;;;;5.00;3.97;;;34.80;55.00;;;;;;6268630;28;20048;-78
2023/09/16 12:12:28;;;;;;;3.60;2.88;;;34.50;55.20;;;;;;6250517;28;20056;-79
2023/09/16 12:15:31;;;;;;;3.40;2.47;;;34.50;54.50;;;;;;6286307;28;20048;-78
2023/09/16 12:18:33;;;;;;;3.40;2.65;;;34.20;54.50;;;;;;6301150;28;20052;-79
2023/09/16 12:21:36;;;;;;;5.10;2.50;;;34.30;54.40;;;;;;6295919;28;20051;-78
2023/09/16 12:24:38;;;;;;;2.53;2.33;;;34.20;53.90;;;;;;6269849;28;20041;-79
2023/09/16 12:27:40;;;;;;;2.30;2.10;;;33.80;53.80;;;;;;6301905;28;20048;-79
2023/09/16 12:30:43;;;;;;;5.80;2.53;;;33.40;53.70;;;;;;6302581;28;20048;-78
2023/09/16 12:33:47;;;;;;;2.60;2.03;;;33.10;54.00;;;;;;6302750;28;20040;-77
2023/09/16 12:36:51;;;;;;;3.10;2.30;;;32.60;53.80;;;;;;6306877;28;20045;-79
2023/09/16 12:39:53;;;;;;;3.47;3.17;;;32.00;54.30;;;;;;6300358;28;20075;-79
2023/09/16 12:42:54;;;;;;;7.93;3.35;;;31.80;54.80;;;;;;6299221;28;20064;-80
2023/09/16 12:45:57;;;;;;;4.68;2.85;;;31.60;55.90;;;;;;6300923;28;20041;-80
2023/09/16 12:48:59;;;;;;;2.55;2.22;;;31.80;56.70;;;;;;6298010;28;20051;-81
2023/09/16 12:52:03;;;;;;;2.20;1.80;;;32.30;56.60;;;;;;6295432;28;20049;-80
2023/09/16 12:55:11;;;;;;;2.70;1.98;;;32.50;55.40;;;;;;6301080;28;20048;-80
2023/09/16 12:58:14;;;;;;;3.10;2.60;;;32.60;55.40;;;;;;6300157;28;20048;-79
2023/09/16 13:01:19;;;;;;;2.33;2.00;;;33.00;55.00;;;;;;6300027;28;20416;-80
2023/09/16 13:04:21;;;;;;;2.70;2.20;;;33.40;54.00;;;;;;6298092;28;20059;-80
2023/09/16 13:07:24;;;;;;;5.55;2.08;;;33.80;53.60;;;;;;6291945;28;20056;-81
2023/09/16 13:10:28;;;;;;;2.63;2.33;;;34.10;53.00;;;;;;6300422;28;20044;-80
2023/09/16 13:13:30;;;;;;;2.65;2.25;;;34.20;52.80;;;;;;6299396;28;20113;-79
2023/09/16 13:16:35;;;;;;;7.05;2.50;;;34.80;52.20;;;;;;6299535;28;20111;-80
2023/09/16 13:19:41;;;;;;;2.47;2.15;;;35.00;52.30;;;;;;6299631;28;20044;-80
2023/09/16 13:22:45;;;;;;;2.90;2.17;;;35.10;51.00;;;;;;6295578;28;20055;-79
2023/09/16 13:25:47;;;;;;;2.88;2.50;;;35.40;51.00;;;;;;6299360;28;20436;-80
2023/09/16 13:28:57;;;;;;;2.50;2.30;;;36.10;50.40;;;;;;6296491;28;20489;-80
2023/09/16 13:32:04;;;;;;;3.40;2.67;;;36.90;49.40;;;;;;6283300;28;20052;-79
2023/09/16 13:35:06;;;;;;;3.65;2.45;;;37.20;48.90;;;;;;6296902;28;20090;-80
2023/09/16 13:38:10;;;;;;;2.42;2.08;;;37.20;48.60;;;;;;6299239;28;20764;-79
2023/09/16 13:41:12;;;;;;;2.53;1.80;;;36.70;48.30;;;;;;6298853;28;20465;-79
2023/09/16 13:44:14;;;;;;;2.50;1.95;;;35.80;48.90;;;;;;6298655;28;20416;-80
2023/09/16 13:47:16;;;;;;;3.58;2.38;;;35.10;49.70;;;;;;6299990;28;20520;-79
2023/09/16 13:50:20;;;;;;;3.72;2.47;;;34.70;50.30;;;;;;6295951;28;20041;-79
2023/09/16 13:53:25;;;;;;;3.20;2.90;;;34.40;50.70;;;;;;6290376;28;20045;-79
2023/09/16 13:56:27;;;;;;;2.50;2.03;;;34.10;51.20;;;;;;6299414;28;20045;-80
2023/09/16 13:59:29;;;;;;;2.65;2.10;;;33.80;51.50;;;;;;6283806;28;20055;-78
2023/09/16 14:02:30;;;;;;;2.63;2.33;;;33.50;52.00;;;;;;6299637;28;20045;-80
2023/09/16 14:05:32;;;;;;;2.55;2.17;;;33.20;52.50;;;;;;6298556;28;20051;-80
2023/09/16 14:08:35;;;;;;;2.05;1.90;;;32.90;53.00;;;;;;6299224;28;20040;-80
2023/09/16 14:11:37;;;;;;;2.47;2.15;;;32.70;53.40;;;;;;6299116;28;20056;-78
2023/09/16 14:14:39;;;;;;;3.15;2.22;;;32.40;53.90;;;;;;6298983;28;20044;-80
2023/09/16 14:17:41;;;;;;;2.90;2.60;;;32.10;53.90;;;;;;6298625;28;20143;-80
2023/09/16 14:20:42;;;;;;;2.70;2.50;;;31.90;54.30;;;;;;6293829;28;20037;-80
2023/09/16 14:23:45;;;;;;;2.92;2.50;;;31.80;54.60;;;;;;6298269;28;20049;-80
2023/09/16 14:26:47;;;;;;;2.05;1.75;;;31.60;54.70;;;;;;6285697;28;20052;-79
2023/09/16 14:29:50;;;;;;;3.05;2.45;;;31.60;55.10;;;;;;6298801;28;21493;-79
2023/09/16 14:32:51;;;;;;;2.30;2.10;;;31.60;55.60;;;;;;6294952;28;20049;-80
2023/09/16 14:35:53;;;;;;;3.33;2.88;;;31.70;56.00;;;;;;6298173;28;20041;-80
2023/09/16 14:38:56;;;;;;;2.63;2.42;;;31.70;56.30;;;;;;6291687;28;20051;-80
2023/09/16 14:41:58;;;;;;;3.28;2.40;;;31.70;56.60;;;;;;6298175;28;20048;-80
2023/09/16 14:45:01;;;;;;;3.28;2.63;;;31.80;56.70;;;;;;6285055;28;20056;-79
2023/09/16 14:48:03;;;;;;;2.75;2.33;;;31.90;56.80;;;;;;6285504;28;20036;-80
2023/09/16 14:51:05;;;;;;;3.97;3.00;;;31.90;56.90;;;;;;6292889;28;20507;-80
2023/09/16 14:54:09;;;;;;;2.90;2.60;;;31.60;57.10;;;;;;6275131;28;20420;-79
2023/09/16 14:57:11;;;;;;;3.95;2.78;;;31.40;57.40;;;;;;6286169;28;20048;-80
2023/09/16 15:00:13;;;;;;;2.40;2.15;;;31.20;57.90;;;;;;6275764;28;20041;-80
2023/09/16 15:03:15;;;;;;;3.60;2.97;;;31.00;58.50;;;;;;6295307;28;20423;-80
2023/09/16 15:06:18;;;;;;;3.83;3.22;;;30.80;59.00;;;;;;6298001;28;20040;-81
2023/09/16 15:09:22;;;;;;;3.75;2.78;;;30.50;59.40;;;;;;6297977;28;20079;-81
2023/09/16 15:12:23;;;;;;;3.92;3.15;;;30.30;59.90;;;;;;6273602;28;20531;-80
2023/09/16 15:15:25;;;;;;;3.67;2.95;;;30.30;60.30;;;;;;6281260;28;20622;-79
2023/09/16 15:18:28;;;;;;;3.00;2.67;;;30.20;61.20;;;;;;6297192;28;20041;-80
2023/09/16 15:21:30;;;;;;;4.13;2.50;;;30.20;61.00;;;;;;6290586;28;20531;-79
2023/09/16 15:24:33;;;;;;;2.80;2.45;;;30.10;61.20;;;;;;6288630;28;20041;-79
2023/09/16 15:27:35;;;;;;;3.78;2.55;;;30.00;61.50;;;;;;6285568;28;20037;-77
2023/09/16 15:30:36;;;;;;;3.03;2.72;;;30.00;61.70;;;;;;6298070;28;20044;-80
2023/09/16 15:33:38;;;;;;;4.80;3.88;;;29.80;61.80;;;;;;6282194;28;20045;-78
2023/09/16 15:36:40;;;;;;;5.00;2.80;;;29.80;62.00;;;;;;6278674;28;20045;-80
2023/09/16 15:39:43;;;;;;;5.07;2.75;;;29.80;62.40;;;;;;6272478;28;20406;-79
2023/09/16 15:42:45;;;;;;;4.70;3.03;;;29.70;62.60;;;;;;6273061;28;20232;-80
2023/09/16 15:45:57;;;;;;;3.40;2.50;;;29.60;63.00;;;;;;6274740;28;20051;-80
2023/09/16 15:48:59;;;;;;;3.90;2.60;;;29.50;63.30;;;;;;6277168;28;20057;-79
2023/09/16 15:52:01;;;;;;;3.33;2.92;;;29.40;63.40;;;;;;6280749;28;20053;-79